sensor_id;sensor_type;location;lat;lon;timestamp;P1;durP1;ratioP1;P2;durP2;ratioP2
78224;SDS011;67498;53.650;10.090;2023-04-06T00:01:35;7.87;;;1.20;;
78224;SDS011;67498;53.650;10.090;2023-04-06T00:04:01;3.83;;;0.77;;
78224;SDS011;67498;53.650;10.090;2023-04-06T00:06:26;4.30;;;1.67;;
78224;SDS011;67498;53.650;10.090;2023-04-06T00:08:51;2.97;;;1.23;;
78224;SDS011;67498;53.650;10.090;2023-04-06T00:11:17;4.67;;;1.13;;
78224;SDS011;67498;53.650;10.090;2023-04-06T00:13:42;2.50;;;1.00;;
78224;SDS011;67498;53.650;10.090;2023-04-06T00:16:07;3.73;;;1.60;;
78224;SDS011;67498;53.650;10.090;2023-04-06T00:18:32;2.47;;;1.17;;
78224;SDS011;67498;53.650;10.090;2023-04-06T00:20:58;3.73;;;1.33;;
78224;SDS011;67498;53.650;10.090;2023-04-06T00:23:23;5.57;;;1.20;;
78224;SDS011;67498;53.650;10.090;2023-04-06T00:25:48;2.60;;;1.00;;
78224;SDS011;67498;53.650;10.090;2023-04-06T00:28:13;4.10;;;1.10;;
78224;SDS011;67498;53.650;10.090;2023-04-06T00:30:39;1.73;;;0.60;;
78224;SDS011;67498;53.650;10.090;2023-04-06T00:33:05;5.22;;;1.40;;
78224;SDS011;67498;53.650;10.090;2023-04-06T00:35:30;2.47;;;1.00;;
78224;SDS011;67498;53.650;10.090;2023-04-06T00:37:55;3.20;;;1.10;;
78224;SDS011;67498;53.650;10.090;2023-04-06T00:40:21;2.63;;;0.83;;
78224;SDS011;67498;53.650;10.090;2023-04-06T00:42:46;10.70;;;0.87;;
78224;SDS011;67498;53.650;10.090;2023-04-06T00:45:11;2.30;;;0.47;;
78224;SDS011;67498;53.650;10.090;2023-04-06T00:47:36;2.10;;;0.73;;
78224;SDS011;67498;53.650;10.090;2023-04-06T00:50:02;6.60;;;0.97;;
78224;SDS011;67498;53.650;10.090;2023-04-06T00:52:27;2.33;;;0.70;;
78224;SDS011;67498;53.650;10.090;2023-04-06T00:54:52;4.10;;;0.40;;
78224;SDS011;67498;53.650;10.090;2023-04-06T00:57:18;2.13;;;0.63;;
78224;SDS011;67498;53.650;10.090;2023-04-06T00:59:43;5.93;;;1.70;;
78224;SDS011;67498;53.650;10.090;2023-04-06T01:02:08;1.90;;;0.50;;
78224;SDS011;67498;53.650;10.090;2023-04-06T01:04:33;2.53;;;0.77;;
78224;SDS011;67498;53.650;10.090;2023-04-06T01:06:59;1.25;;;0.40;;
78224;SDS011;67498;53.650;10.090;2023-04-06T01:09:24;2.03;;;0.77;;
78224;SDS011;67498;53.650;10.090;2023-04-06T01:11:50;2.17;;;0.80;;
78224;SDS011;67498;53.650;10.090;2023-04-06T01:14:15;2.83;;;1.13;;
78224;SDS011;67498;53.650;10.090;2023-04-06T01:16:40;0.90;;;0.23;;
78224;SDS011;67498;53.650;10.090;2023-04-06T01:19:09;1.75;;;0.47;;
78224;SDS011;67498;53.650;10.090;2023-04-06T01:21:35;1.57;;;0.47;;
78224;SDS011;67498;53.650;10.090;2023-04-06T01:24:00;1.92;;;0.60;;
78224;SDS011;67498;53.650;10.090;2023-04-06T01:26:25;1.70;;;0.50;;
78224;SDS011;67498;53.650;10.090;2023-04-06T01:28:51;2.07;;;0.87;;
78224;SDS011;67498;53.650;10.090;2023-04-06T01:31:16;1.70;;;0.60;;
78224;SDS011;67498;53.650;10.090;2023-04-06T01:33:41;3.77;;;1.23;;
78224;SDS011;67498;53.650;10.090;2023-04-06T01:36:06;2.33;;;0.50;;
78224;SDS011;67498;53.650;10.090;2023-04-06T01:38:32;2.97;;;0.37;;
78224;SDS011;67498;53.650;10.090;2023-04-06T01:40:57;1.50;;;0.47;;
78224;SDS011;67498;53.650;10.090;2023-04-06T01:43:22;2.27;;;0.53;;
78224;SDS011;67498;53.650;10.090;2023-04-06T01:45:48;2.80;;;0.63;;
78224;SDS011;67498;53.650;10.090;2023-04-06T01:48:13;2.50;;;0.60;;
78224;SDS011;67498;53.650;10.090;2023-04-06T01:50:38;1.33;;;0.50;;
78224;SDS011;67498;53.650;10.090;2023-04-06T01:53:03;2.13;;;0.73;;
78224;SDS011;67498;53.650;10.090;2023-04-06T01:55:29;3.37;;;1.43;;
78224;SDS011;67498;53.650;10.090;2023-04-06T01:57:54;7.37;;;0.80;;
78224;SDS011;67498;53.650;10.090;2023-04-06T02:00:19;2.20;;;1.30;;
78224;SDS011;67498;53.650;10.090;2023-04-06T02:02:45;2.67;;;0.70;;
78224;SDS011;67498;53.650;10.090;2023-04-06T02:05:10;1.38;;;0.38;;
78224;SDS011;67498;53.650;10.090;2023-04-06T02:07:35;1.90;;;0.57;;
78224;SDS011;67498;53.650;10.090;2023-04-06T02:10:01;3.07;;;0.60;;
78224;SDS011;67498;53.650;10.090;2023-04-06T02:12:27;3.00;;;0.50;;
78224;SDS011;67498;53.650;10.090;2023-04-06T02:14:52;1.30;;;0.30;;
78224;SDS011;67498;53.650;10.090;2023-04-06T02:17:17;1.73;;;0.50;;
78224;SDS011;67498;53.650;10.090;2023-04-06T02:19:42;14.40;;;1.40;;
78224;SDS011;67498;53.650;10.090;2023-04-06T02:22:08;2.30;;;0.60;;
78224;SDS011;67498;53.650;10.090;2023-04-06T02:24:33;1.63;;;0.40;;
78224;SDS011;67498;53.650;10.090;2023-04-06T02:26:59;2.13;;;0.40;;
78224;SDS011;67498;53.650;10.090;2023-04-06T02:29:25;4.10;;;1.17;;
78224;SDS011;67498;53.650;10.090;2023-04-06T02:31:50;3.03;;;0.70;;
78224;SDS011;67498;53.650;10.090;2023-04-06T02:34:15;3.67;;;1.17;;
78224;SDS011;67498;53.650;10.090;2023-04-06T02:36:45;2.33;;;1.00;;
78224;SDS011;67498;53.650;10.090;2023-04-06T02:39:11;1.75;;;0.60;;
78224;SDS011;67498;53.650;10.090;2023-04-06T02:41:36;2.13;;;0.80;;
78224;SDS011;67498;53.650;10.090;2023-04-06T02:44:02;2.97;;;0.55;;
78224;SDS011;67498;53.650;10.090;2023-04-06T02:46:27;1.73;;;0.40;;
78224;SDS011;67498;53.650;10.090;2023-04-06T02:48:52;3.07;;;1.40;;
78224;SDS011;67498;53.650;10.090;2023-04-06T02:51:18;2.97;;;0.73;;
78224;SDS011;67498;53.650;10.090;2023-04-06T02:53:43;3.03;;;0.60;;
78224;SDS011;67498;53.650;10.090;2023-04-06T02:56:08;7.60;;;1.00;;
78224;SDS011;67498;53.650;10.090;2023-04-06T02:58:33;2.90;;;0.83;;
78224;SDS011;67498;53.650;10.090;2023-04-06T03:00:59;2.53;;;0.83;;
78224;SDS011;67498;53.650;10.090;2023-04-06T03:03:24;5.00;;;1.25;;
78224;SDS011;67498;53.650;10.090;2023-04-06T03:05:50;5.37;;;1.63;;
78224;SDS011;67498;53.650;10.090;2023-04-06T03:08:15;2.80;;;1.10;;
78224;SDS011;67498;53.650;10.090;2023-04-06T03:10:40;2.97;;;0.73;;
78224;SDS011;67498;53.650;10.090;2023-04-06T03:13:05;4.03;;;1.27;;
78224;SDS011;67498;53.650;10.090;2023-04-06T03:15:31;2.00;;;0.80;;
78224;SDS011;67498;53.650;10.090;2023-04-06T03:17:56;1.93;;;0.50;;
78224;SDS011;67498;53.650;10.090;2023-04-06T03:20:21;3.00;;;1.00;;
78224;SDS011;67498;53.650;10.090;2023-04-06T03:22:47;2.70;;;1.37;;
78224;SDS011;67498;53.650;10.090;2023-04-06T03:25:12;3.77;;;1.03;;
78224;SDS011;67498;53.650;10.090;2023-04-06T03:27:37;3.07;;;1.20;;
78224;SDS011;67498;53.650;10.090;2023-04-06T03:30:02;2.20;;;0.83;;
78224;SDS011;67498;53.650;10.090;2023-04-06T03:32:28;3.40;;;1.20;;
78224;SDS011;67498;53.650;10.090;2023-04-06T03:34:53;2.93;;;1.00;;
78224;SDS011;67498;53.650;10.090;2023-04-06T03:37:18;2.27;;;0.70;;
78224;SDS011;67498;53.650;10.090;2023-04-06T03:39:43;2.87;;;0.93;;
78224;SDS011;67498;53.650;10.090;2023-04-06T03:42:08;2.80;;;1.17;;
78224;SDS011;67498;53.650;10.090;2023-04-06T03:44:34;4.17;;;1.57;;
78224;SDS011;67498;53.650;10.090;2023-04-06T03:46:59;2.67;;;0.57;;
78224;SDS011;67498;53.650;10.090;2023-04-06T03:49:24;3.97;;;1.30;;
78224;SDS011;67498;53.650;10.090;2023-04-06T03:51:49;3.23;;;1.00;;
78224;SDS011;67498;53.650;10.090;2023-04-06T03:54:15;1.77;;;0.50;;
78224;SDS011;67498;53.650;10.090;2023-04-06T03:56:40;2.80;;;0.83;;
78224;SDS011;67498;53.650;10.090;2023-04-06T03:59:05;2.47;;;1.10;;
78224;SDS011;67498;53.650;10.090;2023-04-06T04:01:30;2.40;;;0.80;;
78224;SDS011;67498;53.650;10.090;2023-04-06T04:03:56;3.80;;;1.43;;
78224;SDS011;67498;53.650;10.090;2023-04-06T04:06:21;2.80;;;0.80;;
78224;SDS011;67498;53.650;10.090;2023-04-06T04:08:46;3.77;;;0.83;;
78224;SDS011;67498;53.650;10.090;2023-04-06T04:11:11;1.97;;;0.67;;
78224;SDS011;67498;53.650;10.090;2023-04-06T04:13:36;1.80;;;0.67;;
78224;SDS011;67498;53.650;10.090;2023-04-06T04:16:02;2.17;;;0.77;;
78224;SDS011;67498;53.650;10.090;2023-04-06T04:18:27;4.30;;;1.03;;
78224;SDS011;67498;53.650;10.090;2023-04-06T04:20:52;3.30;;;0.80;;
78224;SDS011;67498;53.650;10.090;2023-04-06T04:23:17;2.75;;;0.95;;
78224;SDS011;67498;53.650;10.090;2023-04-06T04:25:43;2.50;;;0.90;;
78224;SDS011;67498;53.650;10.090;2023-04-06T04:28:08;2.43;;;0.63;;
78224;SDS011;67498;53.650;10.090;2023-04-06T04:30:33;2.20;;;0.80;;
78224;SDS011;67498;53.650;10.090;2023-04-06T04:32:58;2.03;;;0.87;;
78224;SDS011;67498;53.650;10.090;2023-04-06T04:35:23;2.80;;;0.70;;
78224;SDS011;67498;53.650;10.090;2023-04-06T04:37:49;6.07;;;1.40;;
78224;SDS011;67498;53.650;10.090;2023-04-06T04:40:14;4.40;;;1.00;;
78224;SDS011;67498;53.650;10.090;2023-04-06T04:42:39;2.00;;;0.60;;
78224;SDS011;67498;53.650;10.090;2023-04-06T04:45:05;3.83;;;1.03;;
78224;SDS011;67498;53.650;10.090;2023-04-06T04:47:30;1.87;;;0.57;;
78224;SDS011;67498;53.650;10.090;2023-04-06T04:49:55;1.97;;;0.40;;
78224;SDS011;67498;53.650;10.090;2023-04-06T04:52:20;3.67;;;1.43;;
78224;SDS011;67498;53.650;10.090;2023-04-06T04:54:45;3.67;;;0.70;;
78224;SDS011;67498;53.650;10.090;2023-04-06T04:57:12;2.15;;;0.50;;
78224;SDS011;67498;53.650;10.090;2023-04-06T04:59:37;1.57;;;0.77;;
78224;SDS011;67498;53.650;10.090;2023-04-06T05:02:02;2.63;;;0.63;;
78224;SDS011;67498;53.650;10.090;2023-04-06T05:04:27;2.97;;;0.87;;
78224;SDS011;67498;53.650;10.090;2023-04-06T05:07:03;2.43;;;0.83;;
78224;SDS011;67498;53.650;10.090;2023-04-06T05:09:29;3.10;;;1.00;;
78224;SDS011;67498;53.650;10.090;2023-04-06T05:11:54;2.35;;;0.65;;
78224;SDS011;67498;53.650;10.090;2023-04-06T05:14:20;3.20;;;1.43;;
78224;SDS011;67498;53.650;10.090;2023-04-06T05:16:45;3.17;;;0.97;;
78224;SDS011;67498;53.650;10.090;2023-04-06T05:19:10;2.63;;;0.83;;
78224;SDS011;67498;53.650;10.090;2023-04-06T05:21:36;2.77;;;1.03;;
78224;SDS011;67498;53.650;10.090;2023-04-06T05:24:01;3.50;;;1.00;;
78224;SDS011;67498;53.650;10.090;2023-04-06T05:26:27;4.15;;;1.30;;
78224;SDS011;67498;53.650;10.090;2023-04-06T05:28:52;4.33;;;1.90;;
78224;SDS011;67498;53.650;10.090;2023-04-06T05:31:18;4.83;;;1.63;;
78224;SDS011;67498;53.650;10.090;2023-04-06T05:33:43;2.43;;;0.93;;
78224;SDS011;67498;53.650;10.090;2023-04-06T05:36:08;3.07;;;1.17;;
78224;SDS011;67498;53.650;10.090;2023-04-06T05:38:34;9.15;;;1.08;;
78224;SDS011;67498;53.650;10.090;2023-04-06T05:40:59;4.40;;;1.43;;
78224;SDS011;67498;53.650;10.090;2023-04-06T05:43:24;3.20;;;1.27;;
78224;SDS011;67498;53.650;10.090;2023-04-06T05:45:50;2.87;;;0.93;;
78224;SDS011;67498;53.650;10.090;2023-04-06T05:48:15;2.03;;;0.53;;
78224;SDS011;67498;53.650;10.090;2023-04-06T05:50:40;1.90;;;0.47;;
78224;SDS011;67498;53.650;10.090;2023-04-06T05:53:05;3.00;;;0.93;;
78224;SDS011;67498;53.650;10.090;2023-04-06T05:55:30;2.57;;;1.17;;
78224;SDS011;67498;53.650;10.090;2023-04-06T05:57:56;2.33;;;1.00;;
78224;SDS011;67498;53.650;10.090;2023-04-06T06:00:21;2.37;;;0.93;;
78224;SDS011;67498;53.650;10.090;2023-04-06T06:02:46;1.57;;;0.53;;
78224;SDS011;67498;53.650;10.090;2023-04-06T06:05:11;2.53;;;0.77;;
78224;SDS011;67498;53.650;10.090;2023-04-06T06:07:37;2.40;;;0.67;;
78224;SDS011;67498;53.650;10.090;2023-04-06T06:10:02;1.87;;;0.77;;
78224;SDS011;67498;53.650;10.090;2023-04-06T06:12:27;3.73;;;1.73;;
78224;SDS011;67498;53.650;10.090;2023-04-06T06:14:53;1.80;;;0.57;;
78224;SDS011;67498;53.650;10.090;2023-04-06T06:17:18;3.20;;;1.02;;
78224;SDS011;67498;53.650;10.090;2023-04-06T06:19:44;5.40;;;1.70;;
78224;SDS011;67498;53.650;10.090;2023-04-06T06:22:09;2.43;;;0.70;;
78224;SDS011;67498;53.650;10.090;2023-04-06T06:24:34;3.53;;;0.90;;
78224;SDS011;67498;53.650;10.090;2023-04-06T06:27:00;5.27;;;1.87;;
78224;SDS011;67498;53.650;10.090;2023-04-06T06:29:25;5.17;;;1.87;;
78224;SDS011;67498;53.650;10.090;2023-04-06T06:31:50;3.77;;;1.27;;
78224;SDS011;67498;53.650;10.090;2023-04-06T06:34:15;3.03;;;0.87;;
78224;SDS011;67498;53.650;10.090;2023-04-06T06:36:40;3.40;;;1.00;;
78224;SDS011;67498;53.650;10.090;2023-04-06T06:39:06;4.67;;;1.40;;
78224;SDS011;67498;53.650;10.090;2023-04-06T06:41:31;7.33;;;2.10;;
78224;SDS011;67498;53.650;10.090;2023-04-06T06:43:56;5.37;;;2.07;;
78224;SDS011;67498;53.650;10.090;2023-04-06T06:46:21;7.00;;;2.67;;
78224;SDS011;67498;53.650;10.090;2023-04-06T06:48:47;8.83;;;1.67;;
78224;SDS011;67498;53.650;10.090;2023-04-06T06:51:12;5.93;;;2.20;;
78224;SDS011;67498;53.650;10.090;2023-04-06T06:53:37;6.37;;;2.30;;
78224;SDS011;67498;53.650;10.090;2023-04-06T06:56:02;4.77;;;2.00;;
78224;SDS011;67498;53.650;10.090;2023-04-06T06:58:27;4.83;;;1.70;;
78224;SDS011;67498;53.650;10.090;2023-04-06T07:00:56;4.60;;;1.63;;
78224;SDS011;67498;53.650;10.090;2023-04-06T07:03:22;4.77;;;1.87;;
78224;SDS011;67498;53.650;10.090;2023-04-06T07:05:48;13.37;;;2.00;;
78224;SDS011;67498;53.650;10.090;2023-04-06T07:08:17;3.95;;;1.45;;
78224;SDS011;67498;53.650;10.090;2023-04-06T07:10:43;6.00;;;1.83;;
78224;SDS011;67498;53.650;10.090;2023-04-06T07:13:08;6.20;;;1.90;;
78224;SDS011;67498;53.650;10.090;2023-04-06T07:15:33;4.57;;;1.73;;
78224;SDS011;67498;53.650;10.090;2023-04-06T07:17:58;4.87;;;1.53;;
78224;SDS011;67498;53.650;10.090;2023-04-06T07:20:24;5.88;;;1.23;;
78224;SDS011;67498;53.650;10.090;2023-04-06T07:22:49;4.50;;;1.83;;
78224;SDS011;67498;53.650;10.090;2023-04-06T07:25:15;6.70;;;1.90;;
78224;SDS011;67498;53.650;10.090;2023-04-06T07:27:40;7.30;;;2.77;;
78224;SDS011;67498;53.650;10.090;2023-04-06T07:30:05;9.13;;;2.77;;
78224;SDS011;67498;53.650;10.090;2023-04-06T07:32:31;5.05;;;1.70;;
78224;SDS011;67498;53.650;10.090;2023-04-06T07:34:56;3.33;;;0.90;;
78224;SDS011;67498;53.650;10.090;2023-04-06T07:37:23;5.28;;;1.77;;
78224;SDS011;67498;53.650;10.090;2023-04-06T07:39:48;4.87;;;1.53;;
78224;SDS011;67498;53.650;10.090;2023-04-06T07:42:13;5.80;;;1.60;;
78224;SDS011;67498;53.650;10.090;2023-04-06T07:44:38;4.67;;;1.50;;
78224;SDS011;67498;53.650;10.090;2023-04-06T07:47:03;5.10;;;1.90;;
78224;SDS011;67498;53.650;10.090;2023-04-06T07:49:29;6.93;;;1.83;;
78224;SDS011;67498;53.650;10.090;2023-04-06T07:51:54;5.00;;;1.83;;
78224;SDS011;67498;53.650;10.090;2023-04-06T07:54:19;6.73;;;2.03;;
78224;SDS011;67498;53.650;10.090;2023-04-06T07:56:45;6.20;;;2.00;;
78224;SDS011;67498;53.650;10.090;2023-04-06T07:59:10;6.07;;;1.83;;
78224;SDS011;67498;53.650;10.090;2023-04-06T08:01:36;8.40;;;1.90;;
78224;SDS011;67498;53.650;10.090;2023-04-06T08:04:01;5.27;;;2.07;;
78224;SDS011;67498;53.650;10.090;2023-04-06T08:06:27;5.15;;;1.50;;
78224;SDS011;67498;53.650;10.090;2023-04-06T08:08:52;4.30;;;1.17;;
78224;SDS011;67498;53.650;10.090;2023-04-06T08:11:17;5.37;;;1.63;;
78224;SDS011;67498;53.650;10.090;2023-04-06T08:13:43;2.73;;;0.77;;
78224;SDS011;67498;53.650;10.090;2023-04-06T08:16:08;7.73;;;1.63;;
78224;SDS011;67498;53.650;10.090;2023-04-06T08:18:33;3.77;;;1.40;;
78224;SDS011;67498;53.650;10.090;2023-04-06T08:20:58;5.77;;;1.80;;
78224;SDS011;67498;53.650;10.090;2023-04-06T08:23:23;4.20;;;1.33;;
78224;SDS011;67498;53.650;10.090;2023-04-06T08:25:49;3.73;;;0.93;;
78224;SDS011;67498;53.650;10.090;2023-04-06T08:28:14;4.87;;;1.60;;
78224;SDS011;67498;53.650;10.090;2023-04-06T08:30:42;5.83;;;1.60;;
78224;SDS011;67498;53.650;10.090;2023-04-06T08:33:07;4.90;;;1.60;;
78224;SDS011;67498;53.650;10.090;2023-04-06T08:35:33;3.07;;;0.80;;
78224;SDS011;67498;53.650;10.090;2023-04-06T08:37:58;4.87;;;1.37;;
78224;SDS011;67498;53.650;10.090;2023-04-06T08:40:23;6.40;;;1.83;;
78224;SDS011;67498;53.650;10.090;2023-04-06T08:42:57;4.60;;;1.53;;
78224;SDS011;67498;53.650;10.090;2023-04-06T08:45:24;3.47;;;0.88;;
78224;SDS011;67498;53.650;10.090;2023-04-06T08:47:50;4.47;;;1.40;;
78224;SDS011;67498;53.650;10.090;2023-04-06T08:50:16;6.07;;;1.83;;
78224;SDS011;67498;53.650;10.090;2023-04-06T08:52:42;4.45;;;1.20;;
78224;SDS011;67498;53.650;10.090;2023-04-06T08:55:08;5.27;;;1.37;;
78224;SDS011;67498;53.650;10.090;2023-04-06T08:57:33;5.63;;;1.40;;
78224;SDS011;67498;53.650;10.090;2023-04-06T09:00:00;5.07;;;1.30;;
78224;SDS011;67498;53.650;10.090;2023-04-06T09:02:26;3.85;;;0.98;;
78224;SDS011;67498;53.650;10.090;2023-04-06T09:04:52;5.57;;;1.60;;
78224;SDS011;67498;53.650;10.090;2023-04-06T09:07:17;3.63;;;0.90;;
78224;SDS011;67498;53.650;10.090;2023-04-06T09:09:43;5.50;;;1.40;;
78224;SDS011;67498;53.650;10.090;2023-04-06T09:12:22;2.67;;;0.60;;
78224;SDS011;67498;53.650;10.090;2023-04-06T09:14:47;5.72;;;1.30;;
78224;SDS011;67498;53.650;10.090;2023-04-06T09:17:19;5.40;;;1.30;;
78224;SDS011;67498;53.650;10.090;2023-04-06T09:19:48;4.97;;;1.30;;
78224;SDS011;67498;53.650;10.090;2023-04-06T09:22:13;2.88;;;0.82;;
78224;SDS011;67498;53.650;10.090;2023-04-06T09:24:56;6.57;;;1.20;;
78224;SDS011;67498;53.650;10.090;2023-04-06T09:27:31;4.00;;;1.17;;
78224;SDS011;67498;53.650;10.090;2023-04-06T09:32:28;3.58;;;1.02;;
78224;SDS011;67498;53.650;10.090;2023-04-06T09:34:53;7.70;;;1.60;;
78224;SDS011;67498;53.650;10.090;2023-04-06T09:37:18;2.60;;;0.67;;
78224;SDS011;67498;53.650;10.090;2023-04-06T09:39:45;3.27;;;0.87;;
78224;SDS011;67498;53.650;10.090;2023-04-06T09:42:22;3.15;;;1.00;;
78224;SDS011;67498;53.650;10.090;2023-04-06T09:44:48;3.58;;;1.20;;
78224;SDS011;67498;53.650;10.090;2023-04-06T09:47:13;4.87;;;1.23;;
78224;SDS011;67498;53.650;10.090;2023-04-06T09:49:39;4.00;;;1.00;;
78224;SDS011;67498;53.650;10.090;2023-04-06T09:52:05;4.47;;;1.10;;
78224;SDS011;67498;53.650;10.090;2023-04-06T09:54:31;2.87;;;0.80;;
78224;SDS011;67498;53.650;10.090;2023-04-06T09:57:07;3.08;;;1.02;;
78224;SDS011;67498;53.650;10.090;2023-04-06T10:02:32;3.13;;;0.70;;
78224;SDS011;67498;53.650;10.090;2023-04-06T10:04:56;3.28;;;1.25;;
78224;SDS011;67498;53.650;10.090;2023-04-06T10:07:23;4.55;;;1.30;;
78224;SDS011;67498;53.650;10.090;2023-04-06T10:09:49;5.77;;;1.30;;
78224;SDS011;67498;53.650;10.090;2023-04-06T10:12:15;3.03;;;0.73;;
78224;SDS011;67498;53.650;10.090;2023-04-06T10:14:40;4.95;;;1.58;;
78224;SDS011;67498;53.650;10.090;2023-04-06T10:17:07;5.67;;;1.93;;
78224;SDS011;67498;53.650;10.090;2023-04-06T10:19:44;5.80;;;1.67;;
78224;SDS011;67498;53.650;10.090;2023-04-06T10:22:12;4.60;;;1.20;;
78224;SDS011;67498;53.650;10.090;2023-04-06T10:24:40;6.07;;;1.70;;
78224;SDS011;67498;53.650;10.090;2023-04-06T10:27:06;4.00;;;1.00;;
78224;SDS011;67498;53.650;10.090;2023-04-06T10:32:32;2.90;;;0.63;;
78224;SDS011;67498;53.650;10.090;2023-04-06T10:35:04;3.45;;;0.98;;
78224;SDS011;67498;53.650;10.090;2023-04-06T10:37:45;4.55;;;1.40;;
78224;SDS011;67498;53.650;10.090;2023-04-06T10:42:45;2.93;;;0.83;;
78224;SDS011;67498;53.650;10.090;2023-04-06T10:45:23;5.93;;;1.13;;
78224;SDS011;67498;53.650;10.090;2023-04-06T10:47:48;8.43;;;1.80;;
78224;SDS011;67498;53.650;10.090;2023-04-06T10:50:14;5.80;;;1.30;;
78224;SDS011;67498;53.650;10.090;2023-04-06T10:52:40;3.75;;;1.10;;
78224;SDS011;67498;53.650;10.090;2023-04-06T10:55:05;5.00;;;1.27;;
78224;SDS011;67498;53.650;10.090;2023-04-06T10:57:31;3.83;;;1.20;;
78224;SDS011;67498;53.650;10.090;2023-04-06T10:59:57;6.30;;;1.83;;
78224;SDS011;67498;53.650;10.090;2023-04-06T11:02:23;5.90;;;2.10;;
78224;SDS011;67498;53.650;10.090;2023-04-06T11:04:57;7.63;;;2.03;;
78224;SDS011;67498;53.650;10.090;2023-04-06T11:07:26;5.38;;;0.73;;
78224;SDS011;67498;53.650;10.090;2023-04-06T11:09:52;5.55;;;1.83;;
78224;SDS011;67498;53.650;10.090;2023-04-06T11:12:24;5.83;;;1.90;;
78224;SDS011;67498;53.650;10.090;2023-04-06T11:14:54;4.05;;;1.42;;
78224;SDS011;67498;53.650;10.090;2023-04-06T11:17:27;17.48;;;2.00;;
78224;SDS011;67498;53.650;10.090;2023-04-06T11:19:52;5.20;;;1.75;;
78224;SDS011;67498;53.650;10.090;2023-04-06T11:22:17;3.97;;;1.33;;
78224;SDS011;67498;53.650;10.090;2023-04-06T11:24:42;6.83;;;2.33;;
78224;SDS011;67498;53.650;10.090;2023-04-06T11:27:08;6.87;;;2.53;;
78224;SDS011;67498;53.650;10.090;2023-04-06T11:29:33;4.67;;;1.53;;
78224;SDS011;67498;53.650;10.090;2023-04-06T11:32:04;9.43;;;2.50;;
78224;SDS011;67498;53.650;10.090;2023-04-06T11:34:35;7.10;;;2.55;;
78224;SDS011;67498;53.650;10.090;2023-04-06T11:37:02;7.10;;;2.17;;
78224;SDS011;67498;53.650;10.090;2023-04-06T11:39:30;6.10;;;2.28;;
78224;SDS011;67498;53.650;10.090;2023-04-06T11:41:59;7.03;;;1.60;;
78224;SDS011;67498;53.650;10.090;2023-04-06T11:46:53;6.75;;;2.58;;
78224;SDS011;67498;53.650;10.090;2023-04-06T11:49:19;6.40;;;1.80;;
78224;SDS011;67498;53.650;10.090;2023-04-06T11:51:45;9.97;;;2.87;;
78224;SDS011;67498;53.650;10.090;2023-04-06T11:54:10;6.22;;;2.30;;
78224;SDS011;67498;53.650;10.090;2023-04-06T11:56:36;8.60;;;2.37;;
78224;SDS011;67498;53.650;10.090;2023-04-06T11:59:01;8.63;;;2.75;;
78224;SDS011;67498;53.650;10.090;2023-04-06T12:01:28;6.83;;;2.07;;
78224;SDS011;67498;53.650;10.090;2023-04-06T12:03:53;7.22;;;2.72;;
78224;SDS011;67498;53.650;10.090;2023-04-06T12:06:18;8.50;;;2.70;;
78224;SDS011;67498;53.650;10.090;2023-04-06T12:08:44;5.63;;;2.17;;
78224;SDS011;67498;53.650;10.090;2023-04-06T12:11:10;4.13;;;1.43;;
78224;SDS011;67498;53.650;10.090;2023-04-06T12:13:35;5.73;;;2.00;;
78224;SDS011;67498;53.650;10.090;2023-04-06T12:16:00;9.13;;;2.90;;
78224;SDS011;67498;53.650;10.090;2023-04-06T12:18:25;6.77;;;2.47;;
78224;SDS011;67498;53.650;10.090;2023-04-06T12:20:51;6.67;;;2.40;;
78224;SDS011;67498;53.650;10.090;2023-04-06T12:23:16;4.60;;;1.50;;
78224;SDS011;67498;53.650;10.090;2023-04-06T12:25:42;6.93;;;1.73;;
78224;SDS011;67498;53.650;10.090;2023-04-06T12:28:07;5.90;;;2.20;;
78224;SDS011;67498;53.650;10.090;2023-04-06T12:30:32;7.03;;;2.90;;
78224;SDS011;67498;53.650;10.090;2023-04-06T12:32:57;6.93;;;2.40;;
78224;SDS011;67498;53.650;10.090;2023-04-06T12:35:23;6.33;;;1.93;;
78224;SDS011;67498;53.650;10.090;2023-04-06T12:37:48;6.30;;;2.17;;
78224;SDS011;67498;53.650;10.090;2023-04-06T12:40:13;8.07;;;2.20;;
78224;SDS011;67498;53.650;10.090;2023-04-06T12:42:39;6.55;;;1.88;;
78224;SDS011;67498;53.650;10.090;2023-04-06T12:45:06;5.78;;;2.10;;
78224;SDS011;67498;53.650;10.090;2023-04-06T12:47:31;6.90;;;2.50;;
78224;SDS011;67498;53.650;10.090;2023-04-06T12:49:57;5.63;;;1.75;;
78224;SDS011;67498;53.650;10.090;2023-04-06T12:52:22;6.40;;;2.07;;
78224;SDS011;67498;53.650;10.090;2023-04-06T12:54:47;5.07;;;1.67;;
78224;SDS011;67498;53.650;10.090;2023-04-06T12:57:13;8.03;;;2.57;;
78224;SDS011;67498;53.650;10.090;2023-04-06T12:59:38;6.73;;;2.00;;
78224;SDS011;67498;53.650;10.090;2023-04-06T13:02:03;6.63;;;2.47;;
78224;SDS011;67498;53.650;10.090;2023-04-06T13:04:29;5.87;;;2.00;;
78224;SDS011;67498;53.650;10.090;2023-04-06T13:06:54;8.73;;;2.80;;
78224;SDS011;67498;53.650;10.090;2023-04-06T13:09:19;6.73;;;1.90;;
78224;SDS011;67498;53.650;10.090;2023-04-06T13:11:45;5.55;;;1.92;;
78224;SDS011;67498;53.650;10.090;2023-04-06T13:14:10;8.97;;;2.13;;
78224;SDS011;67498;53.650;10.090;2023-04-06T13:16:36;7.33;;;2.00;;
78224;SDS011;67498;53.650;10.090;2023-04-06T13:19:01;7.10;;;2.10;;
78224;SDS011;67498;53.650;10.090;2023-04-06T13:21:28;6.72;;;1.88;;
78224;SDS011;67498;53.650;10.090;2023-04-06T13:23:53;6.97;;;2.07;;
78224;SDS011;67498;53.650;10.090;2023-04-06T13:26:19;7.03;;;2.50;;
78224;SDS011;67498;53.650;10.090;2023-04-06T13:28:44;8.65;;;2.35;;
78224;SDS011;67498;53.650;10.090;2023-04-06T13:31:10;7.77;;;2.10;;
78224;SDS011;67498;53.650;10.090;2023-04-06T13:33:35;5.00;;;2.00;;
78224;SDS011;67498;53.650;10.090;2023-04-06T13:36:01;5.03;;;1.60;;
78224;SDS011;67498;53.650;10.090;2023-04-06T13:38:26;7.33;;;2.50;;
78224;SDS011;67498;53.650;10.090;2023-04-06T13:40:52;5.80;;;1.87;;
78224;SDS011;67498;53.650;10.090;2023-04-06T13:43:17;7.83;;;2.00;;
78224;SDS011;67498;53.650;10.090;2023-04-06T13:45:52;6.07;;;2.20;;
78224;SDS011;67498;53.650;10.090;2023-04-06T13:48:18;6.18;;;1.92;;
78224;SDS011;67498;53.650;10.090;2023-04-06T13:50:44;9.70;;;2.70;;
78224;SDS011;67498;53.650;10.090;2023-04-06T13:53:10;5.18;;;2.00;;
78224;SDS011;67498;53.650;10.090;2023-04-06T13:55:35;7.32;;;2.55;;
78224;SDS011;67498;53.650;10.090;2023-04-06T13:58:01;6.63;;;2.40;;
78224;SDS011;67498;53.650;10.090;2023-04-06T14:00:26;5.68;;;2.10;;
78224;SDS011;67498;53.650;10.090;2023-04-06T14:02:53;6.63;;;2.30;;
78224;SDS011;67498;53.650;10.090;2023-04-06T14:05:18;7.47;;;2.78;;
78224;SDS011;67498;53.650;10.090;2023-04-06T14:07:43;6.63;;;1.93;;
78224;SDS011;67498;53.650;10.090;2023-04-06T14:10:08;6.87;;;2.07;;
78224;SDS011;67498;53.650;10.090;2023-04-06T14:12:39;8.23;;;2.35;;
78224;SDS011;67498;53.650;10.090;2023-04-06T14:15:04;5.73;;;2.07;;
78224;SDS011;67498;53.650;10.090;2023-04-06T14:17:30;9.20;;;2.50;;
78224;SDS011;67498;53.650;10.090;2023-04-06T14:19:55;7.10;;;2.70;;
78224;SDS011;67498;53.650;10.090;2023-04-06T14:22:21;4.72;;;1.80;;
78224;SDS011;67498;53.650;10.090;2023-04-06T14:24:46;5.93;;;2.13;;
78224;SDS011;67498;53.650;10.090;2023-04-06T14:27:11;6.77;;;2.40;;
78224;SDS011;67498;53.650;10.090;2023-04-06T14:29:37;8.07;;;2.77;;
78224;SDS011;67498;53.650;10.090;2023-04-06T14:32:02;8.13;;;2.53;;
78224;SDS011;67498;53.650;10.090;2023-04-06T14:34:28;8.47;;;2.97;;
78224;SDS011;67498;53.650;10.090;2023-04-06T14:36:53;6.37;;;2.20;;
78224;SDS011;67498;53.650;10.090;2023-04-06T14:39:18;9.50;;;2.90;;